Tappahannock, Virginia
Current Conditions -  °F | °C
As of 12:55 AM on Saturday 29 Nov 2014 (Local Time) from KXSA Reporting Station
Clear Clear  
Wind Chill: 26°   Ceiling: Unl
Heat Index: 26°   Visibility: 10mi
Dew Point: 22°   Wind: 0mph
Humidity: 87%   Direction: NA
Pressure: 30.32"   Gusts: NA
Location:  37.93°N, 76.86°W
Report Text: KXSA 290555Z AUTO 00000KT 10SM CLR M04/M05 A3032 RMK AO2 T10361055 11017 21041 400601041
Loading
Personal Weather Stations






























Interactive Weather Map New forecast layout! Learn more

10-Day Weather Forecast

Advertisements
Track Severe Weather on mobile